createdAt,value
2023-01-09T00:02:14.265Z,89.13
2023-01-09T00:04:42.287Z,88.86
2023-01-09T00:07:10.357Z,88.99
2023-01-09T00:09:38.365Z,89.20
2023-01-09T00:12:06.400Z,89.18
2023-01-09T00:14:34.364Z,89.38
2023-01-09T00:17:02.382Z,89.27
2023-01-09T00:19:30.500Z,89.14
2023-01-09T00:21:58.505Z,89.15
2023-01-09T00:24:26.451Z,89.11
2023-01-09T00:26:54.415Z,89.21
2023-01-09T00:29:22.502Z,89.45
2023-01-09T00:31:50.665Z,89.33
2023-01-09T00:34:18.975Z,89.25
2023-01-09T00:36:47.104Z,89.46
2023-01-09T00:39:15.180Z,89.15
2023-01-09T00:41:50.232Z,89.49
2023-01-09T00:44:24.243Z,89.49
2023-01-09T00:46:58.752Z,89.41
2023-01-09T00:49:31.206Z,89.35
2023-01-09T00:51:59.696Z,89.43
2023-01-09T00:54:29.211Z,89.74
2023-01-09T00:56:58.854Z,89.81
2023-01-09T00:59:28.342Z,89.66
2023-01-09T01:01:56.668Z,89.49
2023-01-09T01:04:43.727Z,89.26
2023-01-09T01:07:30.559Z,89.54
2023-01-09T01:09:58.802Z,89.49
2023-01-09T01:12:27.170Z,89.67
2023-01-09T01:14:55.171Z,89.72
2023-01-09T01:17:23.218Z,89.82
2023-01-09T01:19:51.178Z,89.45
2023-01-09T01:22:19.353Z,89.58
2023-01-09T01:24:47.315Z,89.64
2023-01-09T01:27:15.391Z,89.47
2023-01-09T01:29:43.391Z,89.36
2023-01-09T01:32:12.048Z,89.51
2023-01-09T01:34:40.063Z,88.99
2023-01-09T01:37:08.084Z,89.31
2023-01-09T01:39:36.128Z,89.60
2023-01-09T01:42:05.906Z,89.44
2023-01-09T01:45:05.269Z,89.52
2023-01-09T01:47:33.245Z,89.57
2023-01-09T01:50:08.703Z,89.53
2023-01-09T01:52:37.995Z,89.54
2023-01-09T01:55:08.614Z,89.79
2023-01-09T01:57:40.063Z,89.73
2023-01-09T02:00:08.893Z,89.64
2023-01-09T02:02:37.068Z,89.46
2023-01-09T02:05:06.237Z,89.68
2023-01-09T02:07:35.217Z,89.93
2023-01-09T02:10:03.701Z,89.19
2023-01-09T02:12:31.699Z,89.39
2023-01-09T02:15:14.820Z,89.11
2023-01-09T02:18:07.948Z,89.42
2023-01-09T02:20:57.621Z,89.17
2023-01-09T02:23:44.639Z,89.36
2023-01-09T02:26:40.562Z,89.13
2023-01-09T02:29:30.240Z,88.92
2023-01-09T02:32:10.496Z,89.26
2023-01-09T02:34:47.886Z,89.33
2023-01-09T02:37:35.521Z,89.25
2023-01-09T02:40:17.944Z,89.20
2023-01-09T02:42:47.734Z,89.42
2023-01-09T02:45:16.319Z,89.47
2023-01-09T02:47:46.886Z,89.46
2023-01-09T02:50:20.454Z,89.57
2023-01-09T02:53:35.830Z,89.66
2023-01-09T02:56:31.856Z,89.53
2023-01-09T02:59:12.831Z,89.65
2023-01-09T03:01:52.566Z,89.49
2023-01-09T03:04:32.476Z,89.73
2023-01-09T03:07:11.733Z,89.40
2023-01-09T03:09:42.798Z,89.43
2023-01-09T03:12:19.795Z,89.41
2023-01-09T03:14:51.082Z,89.51
2023-01-09T03:17:32.220Z,89.41
2023-01-09T03:20:03.077Z,89.79
2023-01-09T03:22:31.124Z,89.53
2023-01-09T03:24:59.993Z,89.51
2023-01-09T03:27:28.727Z,89.73
2023-01-09T03:29:56.753Z,89.84
2023-01-09T03:32:24.833Z,89.64
2023-01-09T03:34:52.927Z,89.89
2023-01-09T03:37:21.086Z,89.80
2023-01-09T03:39:49.045Z,90.30
2023-01-09T03:42:17.012Z,90.15
2023-01-09T03:44:45.079Z,90.41
2023-01-09T03:47:13.000Z,90.33
2023-01-09T03:49:41.016Z,90.18
2023-01-09T03:52:09.086Z,90.45
2023-01-09T03:54:37.175Z,90.62
2023-01-09T03:57:05.227Z,90.58
2023-01-09T03:59:33.234Z,90.66
2023-01-09T04:02:03.730Z,90.45
2023-01-09T04:04:32.411Z,90.80
2023-01-09T04:07:00.412Z,90.84
2023-01-09T04:09:28.351Z,91.02
2023-01-09T04:11:56.317Z,91.05
2023-01-09T04:14:24.506Z,91.05
2023-01-09T04:16:52.665Z,91.08
2023-01-09T04:19:20.880Z,91.31
2023-01-09T04:21:48.813Z,91.13
2023-01-09T04:24:16.773Z,91.38
2023-01-09T04:26:44.847Z,91.22
2023-01-09T04:29:12.815Z,91.45
2023-01-09T04:31:40.887Z,91.62
2023-01-09T04:34:08.813Z,91.94
2023-01-09T04:36:36.928Z,91.47
2023-01-09T04:39:04.892Z,91.55
2023-01-09T04:41:51.399Z,91.73
2023-01-09T04:44:21.109Z,91.80
2023-01-09T04:46:49.688Z,91.95
2023-01-09T04:49:17.863Z,91.59
2023-01-09T04:51:46.040Z,91.70
2023-01-09T04:54:14.426Z,91.85
2023-01-09T04:56:42.796Z,91.76
2023-01-09T04:59:10.878Z,91.93
2023-01-09T05:01:39.604Z,91.97
2023-01-09T05:04:08.291Z,91.98
2023-01-09T05:06:36.510Z,91.82
2023-01-09T05:09:04.596Z,91.89
2023-01-09T05:11:32.757Z,92.13
2023-01-09T05:14:00.833Z,92.32
2023-01-09T05:16:29.346Z,92.47
2023-01-09T05:19:00.674Z,92.40
2023-01-09T05:21:28.991Z,92.36
2023-01-09T05:23:56.889Z,92.28
2023-01-09T05:26:25.001Z,92.30
2023-01-09T05:28:56.796Z,92.13
2023-01-09T05:31:27.012Z,91.98
2023-01-09T05:33:56.158Z,91.97
2023-01-09T05:36:24.115Z,91.67
2023-01-09T05:38:52.012Z,91.71
2023-01-09T05:41:19.920Z,91.58
2023-01-09T05:43:47.808Z,91.48
2023-01-09T05:46:15.837Z,91.44
2023-01-09T05:48:44.914Z,91.19
2023-01-09T05:51:12.883Z,91.39
2023-01-09T05:53:40.808Z,91.52
2023-01-09T05:56:10.172Z,91.46
2023-01-09T05:58:39.453Z,91.36
2023-01-09T06:01:08.056Z,91.78
2023-01-09T06:03:35.971Z,91.61
2023-01-09T06:06:03.999Z,91.67
2023-01-09T06:08:31.869Z,91.90
2023-01-09T06:10:59.787Z,91.74
2023-01-09T06:13:27.730Z,91.86
2023-01-09T06:15:55.748Z,91.87
2023-01-09T06:18:23.709Z,91.81
2023-01-09T06:20:51.723Z,91.99
2023-01-09T06:23:19.729Z,92.16
2023-01-09T06:25:47.849Z,91.96
2023-01-09T06:28:15.845Z,91.53
2023-01-09T06:30:43.864Z,91.35
2023-01-09T06:33:11.921Z,91.62
2023-01-09T06:35:39.824Z,91.53
2023-01-09T06:38:07.716Z,92.09
2023-01-09T06:40:35.803Z,91.34
2023-01-09T06:43:04.567Z,91.51
2023-01-09T06:45:32.550Z,91.44
2023-01-09T06:48:00.468Z,91.49
2023-01-09T06:50:28.423Z,91.69
2023-01-09T06:52:56.439Z,91.83
2023-01-09T06:55:26.416Z,92.00
2023-01-09T06:57:54.491Z,91.99
2023-01-09T07:00:22.456Z,92.21
2023-01-09T07:02:50.374Z,92.21
2023-01-09T07:05:18.555Z,92.20
2023-01-09T07:07:46.418Z,92.01
2023-01-09T07:10:15.233Z,92.15
2023-01-09T07:12:43.152Z,92.63
2023-01-09T07:15:11.593Z,92.68
2023-01-09T07:17:39.528Z,92.46
2023-01-09T07:20:08.239Z,92.43
2023-01-09T07:22:36.182Z,92.26
2023-01-09T07:25:04.690Z,92.44
2023-01-09T07:27:32.602Z,92.35
2023-01-09T07:30:00.429Z,92.30
2023-01-09T07:32:28.309Z,92.47
2023-01-09T07:34:56.253Z,92.39
2023-01-09T07:37:24.387Z,92.43
2023-01-09T07:39:53.450Z,92.47
2023-01-09T07:42:21.445Z,92.77
2023-01-09T07:44:49.420Z,92.16
2023-01-09T07:47:17.315Z,92.48
2023-01-09T07:49:45.357Z,92.03
2023-01-09T07:52:13.405Z,92.25
2023-01-09T07:54:41.232Z,92.44
2023-01-09T07:57:09.162Z,92.35
2023-01-09T07:59:37.025Z,92.28
2023-01-09T08:02:05.780Z,92.73
2023-01-09T08:04:33.736Z,92.61
2023-01-09T08:07:03.360Z,92.63
2023-01-09T08:09:31.266Z,92.98
2023-01-09T08:11:59.374Z,92.84
2023-01-09T08:14:27.316Z,92.98
2023-01-09T08:16:55.174Z,92.92
2023-01-09T08:19:24.066Z,92.88
2023-01-09T08:21:51.946Z,92.77
2023-01-09T08:24:19.799Z,92.46
2023-01-09T08:26:47.735Z,92.28
2023-01-09T08:29:15.667Z,92.29
2023-01-09T08:31:43.667Z,92.12
2023-01-09T08:34:11.519Z,92.08
2023-01-09T08:36:39.353Z,92.24
2023-01-09T08:39:07.329Z,92.37
2023-01-09T08:41:53.966Z,92.43
2023-01-09T08:44:40.370Z,92.54
2023-01-09T08:47:08.816Z,92.49
2023-01-09T08:49:38.944Z,92.32
2023-01-09T08:52:07.720Z,92.28
2023-01-09T08:54:39.975Z,92.23
2023-01-09T08:57:08.134Z,92.10
2023-01-09T08:59:36.953Z,92.19
2023-01-09T09:02:04.844Z,92.23
2023-01-09T09:04:32.886Z,92.10
2023-01-09T09:07:00.892Z,91.93
2023-01-09T09:09:28.872Z,92.18
2023-01-09T09:11:56.881Z,92.21
2023-01-09T09:14:43.385Z,92.06
2023-01-09T09:17:11.349Z,91.76
2023-01-09T09:19:39.742Z,91.65
2023-01-09T09:22:07.617Z,91.58
2023-01-09T09:24:35.487Z,91.67
2023-01-09T09:27:04.784Z,91.40
2023-01-09T09:29:32.745Z,91.32
2023-01-09T09:32:01.037Z,91.50
2023-01-09T09:34:29.517Z,91.45
2023-01-09T09:36:57.589Z,91.31
2023-01-09T09:39:25.648Z,90.78
2023-01-09T09:42:30.493Z,90.66
2023-01-09T09:45:16.757Z,90.93
2023-01-09T09:48:06.489Z,90.53
2023-01-09T09:50:53.745Z,90.40
2023-01-09T09:53:37.282Z,90.42
2023-01-09T09:56:06.040Z,90.37
2023-01-09T09:58:42.523Z,90.14
2023-01-09T10:01:17.499Z,90.08
2023-01-09T10:03:59.328Z,89.63
2023-01-09T10:06:42.374Z,89.74
2023-01-09T10:09:19.301Z,89.59
2023-01-09T10:11:51.354Z,89.47
2023-01-09T10:14:24.400Z,89.38
2023-01-09T10:17:07.924Z,89.57
2023-01-09T10:19:41.658Z,89.52
2023-01-09T10:22:17.879Z,89.70
2023-01-09T10:24:56.137Z,89.45
2023-01-09T10:27:58.314Z,89.62
2023-01-09T10:30:37.610Z,89.74
2023-01-09T10:33:11.673Z,89.93
2023-01-09T10:35:48.102Z,89.99
2023-01-09T10:38:23.001Z,90.07
2023-01-09T10:41:16.806Z,90.00
2023-01-09T10:43:49.277Z,90.18
2023-01-09T10:46:38.051Z,90.30
2023-01-09T10:49:12.817Z,90.32
2023-01-09T10:51:49.306Z,90.23
2023-01-09T10:54:21.654Z,90.56
2023-01-09T10:57:13.029Z,90.64
2023-01-09T10:59:42.034Z,90.83
2023-01-09T11:02:30.275Z,91.09
2023-01-09T11:04:59.090Z,90.95
2023-01-09T11:07:37.257Z,90.90
2023-01-09T11:10:09.729Z,91.04
2023-01-09T11:12:39.349Z,91.17
2023-01-09T11:15:20.155Z,91.16
2023-01-09T11:17:50.665Z,91.05
2023-01-09T11:20:26.162Z,91.24
2023-01-09T11:22:56.906Z,91.03
2023-01-09T11:25:28.326Z,91.10
2023-01-09T11:28:06.406Z,91.22
2023-01-09T11:30:51.156Z,91.30
2023-01-09T11:33:43.845Z,91.34
2023-01-09T11:36:15.794Z,91.29
2023-01-09T11:38:56.145Z,91.36
2023-01-09T11:41:38.182Z,91.14
2023-01-09T11:44:06.672Z,91.59
2023-01-09T11:46:40.204Z,91.78
2023-01-09T11:49:32.127Z,91.92
2023-01-09T11:52:33.150Z,92.07
2023-01-09T11:55:13.178Z,92.23
2023-01-09T11:57:44.118Z,92.01
2023-01-09T12:00:56.220Z,92.11
2023-01-09T12:04:25.217Z,92.02
2023-01-09T12:07:31.205Z,92.14
2023-01-09T12:10:37.190Z,92.56
2023-01-09T12:13:50.208Z,92.62
2023-01-09T12:16:41.363Z,92.62
2023-01-09T12:20:10.233Z,92.39
2023-01-09T12:23:15.213Z,92.34
2023-01-09T12:26:12.190Z,92.37
2023-01-09T12:29:19.290Z,92.58
2023-01-09T12:32:19.237Z,92.46
2023-01-09T12:35:22.504Z,92.46
2023-01-09T12:38:23.188Z,92.76
2023-01-09T12:41:33.242Z,92.83
2023-01-09T12:44:37.262Z,92.91
2023-01-09T12:54:51.611Z,93.47
2023-01-09T12:57:19.569Z,93.36
2023-01-09T12:59:54.260Z,93.75
2023-01-09T13:02:44.488Z,93.67
2023-01-09T13:05:27.615Z,93.96
2023-01-09T13:08:24.602Z,94.01
2023-01-09T13:10:56.464Z,93.92
2023-01-09T13:13:42.398Z,93.99
2023-01-09T13:16:23.572Z,94.24
2023-01-09T13:19:03.041Z,94.43
2023-01-09T13:21:31.781Z,94.48
2023-01-09T13:24:12.183Z,94.58
2023-01-09T13:26:52.531Z,94.54
2023-01-09T13:29:26.957Z,94.80
2023-01-09T13:32:10.400Z,94.87
2023-01-09T13:34:39.083Z,94.76
2023-01-09T13:37:22.787Z,95.02
2023-01-09T13:40:30.730Z,95.13
2023-01-09T13:43:04.578Z,95.18
2023-01-09T13:45:35.027Z,95.06
2023-01-09T13:48:09.961Z,95.30
2023-01-09T13:50:39.499Z,95.26
2023-01-09T13:53:19.762Z,95.39
2023-01-09T13:56:03.269Z,95.06
2023-01-09T13:59:02.169Z,95.36
2023-01-09T14:01:35.933Z,95.14
2023-01-09T14:04:14.918Z,95.45
2023-01-09T14:07:03.239Z,95.50
2023-01-09T14:09:37.799Z,95.59
2023-01-09T14:12:07.101Z,95.84
2023-01-09T14:14:35.670Z,95.93
2023-01-09T14:17:17.175Z,95.84
2023-01-09T14:19:45.559Z,96.03
2023-01-09T14:22:29.872Z,96.04
2023-01-09T14:25:06.272Z,96.33
2023-01-09T14:27:59.901Z,96.55
2023-01-09T14:30:28.070Z,96.62
2023-01-09T14:33:18.795Z,96.91
2023-01-09T14:36:00.702Z,97.10
2023-01-09T14:38:29.049Z,97.14
2023-01-09T14:41:54.061Z,96.95
2023-01-09T14:44:53.383Z,97.30
2023-01-09T14:47:24.606Z,97.41
2023-01-09T14:50:04.468Z,97.37
2023-01-09T14:52:39.976Z,97.62
2023-01-09T14:55:21.180Z,97.34
2023-01-09T14:57:52.424Z,97.16
2023-01-09T15:00:22.592Z,97.52
2023-01-09T15:02:52.969Z,97.51
2023-01-09T15:05:25.334Z,97.54
2023-01-09T15:08:01.398Z,97.55
2023-01-09T15:10:32.244Z,98.02
2023-01-09T15:13:03.231Z,98.00
2023-01-09T15:15:31.169Z,97.91
2023-01-09T15:18:02.492Z,98.01
2023-01-09T15:20:33.480Z,98.32
2023-01-09T15:23:01.697Z,98.47
2023-01-09T15:25:38.889Z,98.35
2023-01-09T15:28:32.803Z,98.19
2023-01-09T15:31:23.179Z,98.43
2023-01-09T15:33:53.941Z,98.31
2023-01-09T15:36:26.235Z,98.38
2023-01-09T15:38:55.371Z,98.55
2023-01-09T15:41:47.925Z,98.40
2023-01-09T15:44:26.050Z,98.26
2023-01-09T15:46:59.908Z,98.39
2023-01-09T15:49:28.581Z,98.43
2023-01-09T15:51:57.082Z,98.66
2023-01-09T15:54:31.515Z,98.55
2023-01-09T15:57:24.907Z,98.42
2023-01-09T15:59:54.586Z,98.50
2023-01-09T16:02:43.334Z,98.44
2023-01-09T16:05:17.041Z,98.69
2023-01-09T16:07:51.095Z,98.43
2023-01-09T16:10:36.172Z,98.33
2023-01-09T16:13:04.205Z,98.55
2023-01-09T16:15:34.963Z,98.46
2023-01-09T16:18:18.561Z,98.50
2023-01-09T16:20:49.599Z,98.45
2023-01-09T16:23:31.531Z,98.22
2023-01-09T16:26:19.938Z,98.35
2023-01-09T16:28:47.895Z,98.27
2023-01-09T16:31:20.817Z,98.40
2023-01-09T16:33:54.396Z,98.13
2023-01-09T16:36:22.562Z,98.37
2023-01-09T16:38:50.538Z,98.28
2023-01-09T16:41:40.426Z,98.36
2023-01-09T16:44:10.946Z,98.12
2023-01-09T16:46:43.707Z,98.17
2023-01-09T16:49:19.108Z,98.11
2023-01-09T16:51:48.210Z,98.08
2023-01-09T16:54:16.746Z,98.20
2023-01-09T16:56:49.454Z,98.19
2023-01-09T16:59:26.457Z,98.29
2023-01-09T17:01:55.477Z,98.10
2023-01-09T17:04:26.641Z,98.15
2023-01-09T17:06:55.326Z,97.93
2023-01-09T17:09:27.348Z,97.83
2023-01-09T17:11:55.884Z,98.07
2023-01-09T17:14:24.772Z,98.09
2023-01-09T17:16:52.903Z,98.13
2023-01-09T17:19:21.624Z,97.89
2023-01-09T17:21:49.714Z,98.01
2023-01-09T17:24:36.511Z,97.94
2023-01-09T17:27:23.416Z,97.95
2023-01-09T17:29:51.537Z,98.07
2023-01-09T17:32:19.876Z,98.23
2023-01-09T17:34:47.938Z,98.08
2023-01-09T17:37:19.666Z,98.29
2023-01-09T17:39:47.684Z,98.42
2023-01-09T17:42:15.635Z,98.22
2023-01-09T17:44:43.699Z,98.21
2023-01-09T17:47:15.719Z,98.04
2023-01-09T17:49:44.044Z,97.93
2023-01-09T17:52:12.221Z,97.86
2023-01-09T17:54:40.833Z,97.90
2023-01-09T17:57:16.456Z,98.06
2023-01-09T17:59:45.194Z,97.92
2023-01-09T18:02:19.976Z,97.86
2023-01-09T18:04:48.183Z,97.67
2023-01-09T18:07:18.067Z,97.77
2023-01-09T18:09:46.133Z,98.12
2023-01-09T18:12:14.294Z,98.25
2023-01-09T18:14:42.884Z,98.51
2023-01-09T18:17:13.525Z,98.81
2023-01-09T18:19:41.587Z,98.70
2023-01-09T18:22:09.867Z,98.69
2023-01-09T18:24:38.129Z,98.51
2023-01-09T18:27:06.099Z,98.36
2023-01-09T18:29:34.279Z,98.49
2023-01-09T18:32:02.424Z,98.49
2023-01-09T18:34:30.515Z,98.38
2023-01-09T18:36:58.643Z,98.37
2023-01-09T18:39:26.759Z,98.54
2023-01-09T18:41:54.957Z,98.58
2023-01-09T18:44:23.008Z,98.58
2023-01-09T18:46:51.298Z,98.26
2023-01-09T18:49:19.455Z,98.22
2023-01-09T18:51:47.468Z,98.30
2023-01-09T18:54:15.514Z,98.22
2023-01-09T18:56:43.666Z,98.43
2023-01-09T18:59:12.678Z,98.37
2023-01-09T19:01:40.757Z,98.50
2023-01-09T19:04:08.988Z,98.56
2023-01-09T19:06:37.696Z,98.49
2023-01-09T19:09:06.867Z,98.53
2023-01-09T19:11:34.868Z,98.25
2023-01-09T19:14:03.040Z,98.27
2023-01-09T19:16:31.371Z,98.49
2023-01-09T19:19:01.162Z,98.38
2023-01-09T19:21:30.060Z,98.33
2023-01-09T19:23:59.004Z,98.34
2023-01-09T19:26:28.623Z,98.50
2023-01-09T19:29:00.819Z,98.41
2023-01-09T19:31:29.205Z,98.77
2023-01-09T19:33:58.897Z,98.41
2023-01-09T19:36:28.167Z,98.14
2023-01-09T19:38:58.291Z,98.25
2023-01-09T19:41:26.766Z,98.76
2023-01-09T19:43:55.019Z,98.88
2023-01-09T19:46:24.884Z,99.05
2023-01-09T19:48:53.646Z,98.96
2023-01-09T19:51:22.327Z,98.84
2023-01-09T19:53:53.632Z,98.75
2023-01-09T19:56:23.598Z,98.94
2023-01-09T19:59:09.790Z,98.81
2023-01-09T20:01:39.824Z,98.64
2023-01-09T20:04:13.631Z,98.49
2023-01-09T20:06:44.083Z,98.77
2023-01-09T20:09:14.126Z,98.94
2023-01-09T20:11:44.893Z,98.96
2023-01-09T20:14:15.372Z,99.04
2023-01-09T20:16:43.979Z,99.18
2023-01-09T20:19:13.452Z,99.01
2023-01-09T20:21:42.787Z,99.23
2023-01-09T20:24:16.788Z,99.01
2023-01-09T20:26:46.510Z,98.80
2023-01-09T20:29:14.899Z,99.02
2023-01-09T20:31:42.990Z,99.12
2023-01-09T20:34:14.883Z,98.96
2023-01-09T20:36:43.488Z,99.06
2023-01-09T20:39:12.560Z,99.12
2023-01-09T20:41:40.887Z,99.18
2023-01-09T20:44:13.217Z,99.28
2023-01-09T20:46:43.572Z,99.12
2023-01-09T20:49:13.661Z,99.02
2023-01-09T20:51:58.564Z,99.02
2023-01-09T20:54:26.515Z,98.95
2023-01-09T20:56:54.716Z,98.97
2023-01-09T20:59:23.322Z,99.15
2023-01-09T21:01:51.674Z,99.03
2023-01-09T21:04:20.111Z,99.16
2023-01-09T21:06:50.249Z,99.17
2023-01-09T21:09:19.211Z,99.04
2023-01-09T21:11:47.449Z,98.99
2023-01-09T21:14:15.405Z,99.12
2023-01-09T21:16:53.327Z,99.17
2023-01-09T21:19:23.063Z,99.16
2023-01-09T21:21:53.203Z,98.99
2023-01-09T21:24:21.436Z,98.89
2023-01-09T21:26:49.487Z,98.69
2023-01-09T21:29:17.766Z,98.56
2023-01-09T21:31:46.041Z,98.46
2023-01-09T21:34:15.841Z,98.53
2023-01-09T21:36:45.224Z,98.60
2023-01-09T21:39:13.522Z,98.69
2023-01-09T21:42:00.338Z,98.45
2023-01-09T21:44:47.183Z,98.50
2023-01-09T21:47:15.344Z,98.50
2023-01-09T21:49:44.956Z,98.42
2023-01-09T21:52:14.542Z,98.51
2023-01-09T21:54:42.719Z,98.53
2023-01-09T21:57:11.289Z,98.55
2023-01-09T21:59:39.368Z,98.63
2023-01-09T22:02:11.466Z,98.48
2023-01-09T22:04:40.307Z,98.56
2023-01-09T22:07:10.245Z,98.66
2023-01-09T22:09:39.144Z,98.56
2023-01-09T22:12:07.498Z,98.52
2023-01-09T22:14:35.672Z,98.55
2023-01-09T22:17:03.749Z,98.37
2023-01-09T22:19:32.772Z,98.38
2023-01-09T22:22:02.746Z,98.34
2023-01-09T22:24:30.819Z,98.40
2023-01-09T22:26:58.992Z,98.21
2023-01-09T22:29:26.993Z,97.96
2023-01-09T22:31:54.965Z,97.83
2023-01-09T22:34:23.626Z,97.96
2023-01-09T22:36:51.717Z,97.98
2023-01-09T22:39:20.096Z,98.00
2023-01-09T22:41:52.797Z,97.92
2023-01-09T22:44:21.430Z,97.96
2023-01-09T22:46:49.397Z,97.81
2023-01-09T22:49:17.377Z,97.84
2023-01-09T22:51:45.463Z,97.84
2023-01-09T22:54:13.733Z,97.83
2023-01-09T22:56:41.731Z,97.81
2023-01-09T22:59:09.758Z,97.62
2023-01-09T23:01:37.887Z,97.70
2023-01-09T23:04:06.149Z,97.59
2023-01-09T23:06:34.378Z,97.69
2023-01-09T23:09:02.481Z,97.59
2023-01-09T23:11:50.215Z,97.59
2023-01-09T23:14:18.351Z,97.35
2023-01-09T23:16:46.642Z,97.29
2023-01-09T23:19:16.035Z,97.48
2023-01-09T23:21:45.365Z,97.34
2023-01-09T23:24:16.301Z,97.36
2023-01-09T23:26:44.850Z,97.42
2023-01-09T23:29:16.012Z,97.35
2023-01-09T23:31:44.639Z,97.41
2023-01-09T23:34:18.080Z,96.91
2023-01-09T23:36:49.655Z,97.01
2023-01-09T23:39:18.146Z,97.12
2023-01-09T23:42:05.021Z,97.01
2023-01-09T23:44:33.306Z,96.83
2023-01-09T23:47:01.445Z,96.81
2023-01-09T23:49:29.586Z,96.82
2023-01-09T23:51:58.232Z,96.90
2023-01-09T23:54:26.308Z,96.54
2023-01-09T23:56:56.643Z,96.80
2023-01-09T23:59:24.814Z,97.09
